SAS1422 EFHK-EKBI
Flight info
| Callsign | SAS1422 |
|---|---|
| Flight time | 1h 34m |
| Altitude | 38000 |
| Route | NUNTO Y369 REKDO DCT KOSKA DCT MIKNA DCT ABINO DCT LOKSA |
| Aircraft | A320/M-SDE3FGHIRWY/LB1 |
Departure
| Time | 2026-05-07 18:34 |
|---|---|
| Airport | Helsinki Vantaa Airport (EFHK) |
Arrival
| Time | 2026-05-07 20:08 |
|---|---|
| Airport | Billund Airport (EKBI) |
| Time | Latitude | Longitude | Altitude | Speed | Heading |
|---|---|---|---|---|---|
| 2026-05-07 17:47 | 60.31712 | 24.97151 | 200 ft | 0 kts | 242° |
| 2026-05-07 18:18 | 60.31718 | 24.97175 | 207 ft | 3 kts | 242° |
| 2026-05-07 18:18 | 60.31727 | 24.97211 | 202 ft | 3 kts | 245° |
| 2026-05-07 18:18 | 60.31734 | 24.97245 | 205 ft | 2 kts | 258° |
| 2026-05-07 18:19 | 60.31736 | 24.97265 | 205 ft | 1 kts | 289° |
| 2026-05-07 18:19 | 60.31731 | 24.97286 | 203 ft | 2 kts | 324° |
| 2026-05-07 18:19 | 60.31723 | 24.97296 | 201 ft | 1 kts | 330° |
| 2026-05-07 18:19 | 60.31716 | 24.97304 | 205 ft | 1 kts | 332° |
| 2026-05-07 18:20 | 60.31714 | 24.97307 | 204 ft | 0 kts | 332° |
| 2026-05-07 18:23 | 60.31716 | 24.97305 | 188 ft | 1 kts | 332° |
| 2026-05-07 18:24 | 60.31732 | 24.97287 | 199 ft | 4 kts | 332° |
| 2026-05-07 18:24 | 60.31765 | 24.97254 | 196 ft | 6 kts | 333° |
| 2026-05-07 18:24 | 60.31813 | 24.97206 | 196 ft | 9 kts | 333° |
| 2026-05-07 18:24 | 60.31876 | 24.97141 | 188 ft | 11 kts | 333° |
| 2026-05-07 18:25 | 60.31954 | 24.97059 | 194 ft | 12 kts | 333° |
| 2026-05-07 18:25 | 60.32018 | 24.96992 | 199 ft | 11 kts | 331° |
| 2026-05-07 18:25 | 60.32089 | 24.96912 | 191 ft | 13 kts | 331° |
| 2026-05-07 18:25 | 60.32151 | 24.96842 | 194 ft | 10 kts | 331° |
| 2026-05-07 18:26 | 60.32220 | 24.96763 | 197 ft | 13 kts | 330° |
| 2026-05-07 18:26 | 60.32265 | 24.96710 | 188 ft | 4 kts | 330° |
| 2026-05-07 18:26 | 60.32283 | 24.96688 | 188 ft | 2 kts | 329° |
| 2026-05-07 18:26 | 60.32288 | 24.96683 | 188 ft | 0 kts | 329° |
| 2026-05-07 18:27 | 60.32299 | 24.96670 | 188 ft | 3 kts | 329° |
| 2026-05-07 18:27 | 60.32341 | 24.96621 | 188 ft | 10 kts | 330° |
| 2026-05-07 18:27 | 60.32409 | 24.96542 | 197 ft | 13 kts | 330° |
| 2026-05-07 18:27 | 60.32500 | 24.96438 | 192 ft | 16 kts | 330° |
| 2026-05-07 18:28 | 60.32602 | 24.96316 | 188 ft | 18 kts | 329° |
| 2026-05-07 18:28 | 60.32721 | 24.96178 | 188 ft | 21 kts | 330° |
| 2026-05-07 18:28 | 60.32848 | 24.96032 | 196 ft | 20 kts | 330° |
| 2026-05-07 18:28 | 60.32959 | 24.95902 | 188 ft | 17 kts | 330° |
| 2026-05-07 18:29 | 60.33051 | 24.95793 | 188 ft | 15 kts | 328° |
| 2026-05-07 18:29 | 60.33137 | 24.95649 | 188 ft | 18 kts | 316° |
| 2026-05-07 18:29 | 60.33209 | 24.95481 | 188 ft | 12 kts | 287° |
| 2026-05-07 18:29 | 60.33174 | 24.95316 | 195 ft | 15 kts | 227° |
| 2026-05-07 18:30 | 60.33111 | 24.95127 | 197 ft | 18 kts | 255° |
| 2026-05-07 18:30 | 60.33111 | 24.94903 | 194 ft | 11 kts | 272° |
| 2026-05-07 18:30 | 60.33114 | 24.94737 | 188 ft | 6 kts | 272° |
| 2026-05-07 18:30 | 60.33114 | 24.94733 | 188 ft | 0 kts | 272° |
| 2026-05-07 18:31 | 60.33115 | 24.94728 | 188 ft | 1 kts | 272° |
| 2026-05-07 18:31 | 60.33116 | 24.94659 | 188 ft | 8 kts | 272° |
| 2026-05-07 18:31 | 60.33119 | 24.94520 | 190 ft | 10 kts | 272° |
| 2026-05-07 18:32 | 60.33106 | 24.94375 | 198 ft | 12 kts | 235° |
| 2026-05-07 18:32 | 60.33092 | 24.94342 | 194 ft | 0 kts | 226° |
| 2026-05-07 18:33 | 60.33075 | 24.94306 | 195 ft | 17 kts | 226° |
| 2026-05-07 18:33 | 60.32809 | 24.93724 | 191 ft | 91 kts | 227° |
| 2026-05-07 18:33 | 60.32252 | 24.92503 | 192 ft | 143 kts | 227° |
| 2026-05-07 18:34 | 60.31535 | 24.90915 | 544 ft | 154 kts | 227° |
| 2026-05-07 18:34 | 60.30814 | 24.89301 | 1193 ft | 154 kts | 229° |
| 2026-05-07 18:34 | 60.30205 | 24.87459 | 1683 ft | 167 kts | 248° |
| 2026-05-07 18:34 | 60.29871 | 24.85076 | 1970 ft | 187 kts | 266° |
| 2026-05-07 18:35 | 60.29960 | 24.82314 | 2244 ft | 210 kts | 285° |
| 2026-05-07 18:35 | 60.30314 | 24.79282 | 2674 ft | 235 kts | 278° |
| 2026-05-07 18:35 | 60.30047 | 24.75914 | 3299 ft | 255 kts | 251° |
| 2026-05-07 18:35 | 60.29368 | 24.72581 | 4214 ft | 260 kts | 250° |
| 2026-05-07 18:36 | 60.28667 | 24.69181 | 5165 ft | 264 kts | 250° |
| 2026-05-07 18:36 | 60.27949 | 24.65703 | 6126 ft | 267 kts | 249° |
| 2026-05-07 18:36 | 60.27238 | 24.62259 | 7027 ft | 270 kts | 249° |
| 2026-05-07 18:36 | 60.26504 | 24.58715 | 7990 ft | 272 kts | 249° |
| 2026-05-07 18:37 | 60.25776 | 24.55196 | 8925 ft | 273 kts | 249° |
| 2026-05-07 18:37 | 60.25048 | 24.51657 | 9863 ft | 274 kts | 249° |
| 2026-05-07 18:37 | 60.24316 | 24.48114 | 10742 ft | 274 kts | 249° |
| 2026-05-07 18:37 | 60.23474 | 24.44535 | 11140 ft | 294 kts | 245° |
| 2026-05-07 18:38 | 60.22483 | 24.40791 | 11558 ft | 309 kts | 244° |
| 2026-05-07 18:38 | 60.21425 | 24.36974 | 12258 ft | 315 kts | 243° |
| 2026-05-07 18:38 | 60.20352 | 24.33137 | 13115 ft | 315 kts | 244° |
| 2026-05-07 18:38 | 60.19285 | 24.29306 | 13948 ft | 315 kts | 244° |
| 2026-05-07 18:39 | 60.18219 | 24.25438 | 14660 ft | 316 kts | 245° |
| 2026-05-07 18:39 | 60.17159 | 24.21563 | 15394 ft | 317 kts | 245° |
| 2026-05-07 18:39 | 60.16100 | 24.17678 | 16099 ft | 318 kts | 245° |
| 2026-05-07 18:39 | 60.15042 | 24.13787 | 16798 ft | 319 kts | 245° |
| 2026-05-07 18:40 | 60.13977 | 24.09870 | 17515 ft | 320 kts | 245° |
| 2026-05-07 18:40 | 60.12906 | 24.05943 | 18227 ft | 321 kts | 245° |
| 2026-05-07 18:40 | 60.11830 | 24.02011 | 18871 ft | 323 kts | 245° |
| 2026-05-07 18:40 | 60.10740 | 23.98049 | 19500 ft | 324 kts | 245° |
| 2026-05-07 18:41 | 60.09652 | 23.94075 | 20134 ft | 326 kts | 245° |
| 2026-05-07 18:41 | 60.08561 | 23.90090 | 20806 ft | 327 kts | 245° |
| 2026-05-07 18:41 | 60.07474 | 23.86073 | 21427 ft | 329 kts | 246° |
| 2026-05-07 18:41 | 60.06407 | 23.82013 | 21961 ft | 331 kts | 246° |
| 2026-05-07 18:42 | 60.05339 | 23.77895 | 22489 ft | 335 kts | 246° |
| 2026-05-07 18:42 | 60.04265 | 23.73744 | 23053 ft | 338 kts | 246° |
| 2026-05-07 18:42 | 60.03177 | 23.69561 | 23651 ft | 340 kts | 246° |
| 2026-05-07 18:42 | 60.02077 | 23.65355 | 24121 ft | 342 kts | 246° |
| 2026-05-07 18:43 | 60.00952 | 23.61079 | 24589 ft | 345 kts | 245° |
| 2026-05-07 18:43 | 59.99829 | 23.56827 | 25035 ft | 347 kts | 245° |
| 2026-05-07 18:43 | 59.98695 | 23.52545 | 25471 ft | 350 kts | 245° |
| 2026-05-07 18:43 | 59.97552 | 23.48243 | 25898 ft | 352 kts | 245° |
| 2026-05-07 18:44 | 59.96399 | 23.43909 | 26328 ft | 355 kts | 245° |
| 2026-05-07 18:44 | 59.95237 | 23.39548 | 26752 ft | 357 kts | 245° |
| 2026-05-07 18:44 | 59.94064 | 23.35159 | 27154 ft | 359 kts | 245° |
| 2026-05-07 18:44 | 59.92885 | 23.30745 | 27563 ft | 362 kts | 245° |
| 2026-05-07 18:45 | 59.91702 | 23.26311 | 27951 ft | 364 kts | 245° |
| 2026-05-07 18:45 | 59.90505 | 23.21835 | 28356 ft | 366 kts | 245° |
| 2026-05-07 18:45 | 59.89299 | 23.17351 | 28743 ft | 369 kts | 245° |
| 2026-05-07 18:45 | 59.88081 | 23.12837 | 29073 ft | 372 kts | 244° |
| 2026-05-07 18:46 | 59.86846 | 23.08266 | 29368 ft | 376 kts | 244° |
| 2026-05-07 18:46 | 59.85605 | 23.03680 | 29718 ft | 379 kts | 244° |
| 2026-05-07 18:46 | 59.84350 | 22.99055 | 30089 ft | 381 kts | 244° |
| 2026-05-07 18:46 | 59.83084 | 22.94406 | 30451 ft | 384 kts | 244° |
| 2026-05-07 18:47 | 59.81807 | 22.89726 | 30742 ft | 387 kts | 245° |
| 2026-05-07 18:47 | 59.80517 | 22.85015 | 31037 ft | 389 kts | 245° |
| 2026-05-07 18:47 | 59.79217 | 22.80275 | 31325 ft | 392 kts | 245° |
| 2026-05-07 18:47 | 59.77909 | 22.75508 | 31678 ft | 393 kts | 245° |
| 2026-05-07 18:48 | 59.76604 | 22.70747 | 32094 ft | 393 kts | 244° |
| 2026-05-07 18:48 | 59.75297 | 22.65990 | 32503 ft | 393 kts | 244° |
| 2026-05-07 18:48 | 59.73987 | 22.61237 | 32904 ft | 393 kts | 244° |
| 2026-05-07 18:48 | 59.72676 | 22.56485 | 33315 ft | 393 kts | 244° |
| 2026-05-07 18:49 | 59.71789 | 22.53271 | 33588 ft | 393 kts | 244° |
| 2026-05-07 18:49 | 59.70476 | 22.48520 | 33988 ft | 393 kts | 244° |
| 2026-05-07 18:49 | 59.69160 | 22.43771 | 34348 ft | 393 kts | 244° |
| 2026-05-07 18:49 | 59.67839 | 22.39023 | 34665 ft | 394 kts | 244° |
| 2026-05-07 18:50 | 59.66512 | 22.34277 | 34974 ft | 394 kts | 244° |
| 2026-05-07 18:50 | 59.65187 | 22.29539 | 35279 ft | 395 kts | 244° |
| 2026-05-07 18:50 | 59.63852 | 22.24779 | 35573 ft | 395 kts | 244° |
| 2026-05-07 18:50 | 59.62522 | 22.20037 | 35860 ft | 395 kts | 243° |
| 2026-05-07 18:51 | 59.61189 | 22.15282 | 36150 ft | 396 kts | 243° |
| 2026-05-07 18:51 | 59.59847 | 22.10516 | 36429 ft | 396 kts | 243° |
| 2026-05-07 18:51 | 59.58505 | 22.05774 | 36700 ft | 397 kts | 243° |
| 2026-05-07 18:51 | 59.57158 | 22.01020 | 36971 ft | 397 kts | 243° |
| 2026-05-07 18:52 | 59.55809 | 21.96263 | 37244 ft | 398 kts | 243° |
| 2026-05-07 18:52 | 59.54456 | 21.91502 | 37487 ft | 398 kts | 243° |
| 2026-05-07 18:52 | 59.53099 | 21.86739 | 37732 ft | 399 kts | 243° |
| 2026-05-07 18:52 | 59.51737 | 21.81977 | 37978 ft | 399 kts | 243° |
| 2026-05-07 18:53 | 59.50372 | 21.77208 | 38113 ft | 400 kts | 242° |
| 2026-05-07 18:53 | 59.47630 | 21.67645 | 38167 ft | 401 kts | 242° |
| 2026-05-07 18:54 | 59.44877 | 21.58107 | 38163 ft | 402 kts | 242° |
| 2026-05-07 18:54 | 59.42103 | 21.48494 | 38163 ft | 402 kts | 242° |
| 2026-05-07 18:55 | 59.39346 | 21.38960 | 38170 ft | 401 kts | 242° |
| 2026-05-07 18:55 | 59.36578 | 21.29442 | 38169 ft | 402 kts | 242° |
| 2026-05-07 18:56 | 59.33806 | 21.19935 | 38175 ft | 402 kts | 242° |
| 2026-05-07 18:56 | 59.31014 | 21.10438 | 38146 ft | 402 kts | 242° |
| 2026-05-07 18:57 | 59.28209 | 21.00955 | 38186 ft | 403 kts | 242° |
| 2026-05-07 18:57 | 59.25397 | 20.91478 | 38187 ft | 403 kts | 242° |
| 2026-05-07 18:58 | 59.22579 | 20.81997 | 38190 ft | 404 kts | 242° |
| 2026-05-07 18:58 | 59.19751 | 20.72522 | 38188 ft | 404 kts | 242° |
| 2026-05-07 18:59 | 59.17121 | 20.62857 | 38194 ft | 403 kts | 246° |
| 2026-05-07 18:59 | 59.14737 | 20.52978 | 38194 ft | 403 kts | 246° |
| 2026-05-07 19:00 | 59.12346 | 20.43089 | 38163 ft | 403 kts | 246° |
| 2026-05-07 19:00 | 59.09942 | 20.33228 | 38187 ft | 403 kts | 246° |
| 2026-05-07 19:01 | 59.07524 | 20.23394 | 38199 ft | 403 kts | 246° |
| 2026-05-07 19:01 | 59.05098 | 20.13546 | 38213 ft | 403 kts | 246° |
| 2026-05-07 19:02 | 59.02655 | 20.03654 | 38201 ft | 403 kts | 246° |
| 2026-05-07 19:02 | 59.00223 | 19.93857 | 38201 ft | 403 kts | 246° |
| 2026-05-07 19:03 | 58.97784 | 19.84054 | 38207 ft | 403 kts | 246° |
| 2026-05-07 19:03 | 58.95334 | 19.74292 | 38200 ft | 403 kts | 246° |
| 2026-05-07 19:04 | 58.92865 | 19.64522 | 38182 ft | 404 kts | 245° |
| 2026-05-07 19:04 | 58.90403 | 19.54762 | 38191 ft | 404 kts | 245° |
| 2026-05-07 19:05 | 58.87923 | 19.45000 | 38192 ft | 405 kts | 245° |
| 2026-05-07 19:05 | 58.85431 | 19.35246 | 38197 ft | 405 kts | 245° |
| 2026-05-07 19:06 | 58.82929 | 19.25508 | 38213 ft | 405 kts | 245° |
| 2026-05-07 19:06 | 58.79176 | 19.10946 | 38211 ft | 403 kts | 245° |
| 2026-05-07 19:07 | 58.76674 | 19.01272 | 38194 ft | 403 kts | 245° |
| 2026-05-07 19:07 | 58.74164 | 18.91612 | 38175 ft | 404 kts | 245° |
| 2026-05-07 19:08 | 58.71622 | 18.81888 | 38176 ft | 404 kts | 245° |
| 2026-05-07 19:08 | 58.69079 | 18.72229 | 38182 ft | 405 kts | 245° |
| 2026-05-07 19:09 | 58.66531 | 18.62562 | 38189 ft | 406 kts | 245° |
| 2026-05-07 19:09 | 58.63980 | 18.52896 | 38194 ft | 406 kts | 245° |
| 2026-05-07 19:10 | 58.61421 | 18.43252 | 38198 ft | 406 kts | 245° |
| 2026-05-07 19:10 | 58.58843 | 18.33623 | 38199 ft | 406 kts | 244° |
| 2026-05-07 19:11 | 58.56259 | 18.24002 | 38157 ft | 406 kts | 244° |
| 2026-05-07 19:11 | 58.53666 | 18.14371 | 38159 ft | 408 kts | 244° |
| 2026-05-07 19:12 | 58.51057 | 18.04715 | 38168 ft | 409 kts | 244° |
| 2026-05-07 19:12 | 58.48435 | 17.95052 | 38178 ft | 410 kts | 244° |
| 2026-05-07 19:13 | 58.45803 | 17.85399 | 38186 ft | 410 kts | 244° |
| 2026-05-07 19:13 | 58.43159 | 17.75743 | 38188 ft | 410 kts | 244° |
| 2026-05-07 19:14 | 58.40501 | 17.66090 | 38195 ft | 411 kts | 244° |
| 2026-05-07 19:14 | 58.37842 | 17.56471 | 38176 ft | 411 kts | 244° |
| 2026-05-07 19:15 | 58.35151 | 17.46782 | 38188 ft | 411 kts | 244° |
| 2026-05-07 19:15 | 58.32469 | 17.37157 | 38188 ft | 412 kts | 243° |
| 2026-05-07 19:16 | 58.29780 | 17.27544 | 38181 ft | 412 kts | 243° |
| 2026-05-07 19:16 | 58.27079 | 17.17926 | 38189 ft | 412 kts | 243° |
| 2026-05-07 19:17 | 58.24371 | 17.08327 | 38193 ft | 412 kts | 243° |
| 2026-05-07 19:17 | 58.21653 | 16.98729 | 38192 ft | 413 kts | 243° |
| 2026-05-07 19:18 | 58.18932 | 16.89148 | 38171 ft | 413 kts | 243° |
| 2026-05-07 19:18 | 58.16198 | 16.79571 | 38186 ft | 414 kts | 243° |
| 2026-05-07 19:19 | 58.13447 | 16.69995 | 38193 ft | 414 kts | 243° |
| 2026-05-07 19:19 | 58.10684 | 16.60427 | 38189 ft | 415 kts | 243° |
| 2026-05-07 19:20 | 58.07921 | 16.50858 | 38191 ft | 415 kts | 243° |
| 2026-05-07 19:20 | 58.05621 | 16.42917 | 38198 ft | 415 kts | 243° |
| 2026-05-07 19:21 | 58.02817 | 16.33309 | 38204 ft | 415 kts | 242° |
| 2026-05-07 19:21 | 58.00027 | 16.23775 | 38196 ft | 415 kts | 242° |
| 2026-05-07 19:22 | 57.97228 | 16.14247 | 38162 ft | 416 kts | 242° |
| 2026-05-07 19:22 | 57.94404 | 16.04709 | 38185 ft | 417 kts | 242° |
| 2026-05-07 19:23 | 57.91582 | 15.95177 | 38182 ft | 418 kts | 242° |
| 2026-05-07 19:23 | 57.88774 | 15.85608 | 38185 ft | 418 kts | 242° |
| 2026-05-07 19:24 | 57.86011 | 15.75993 | 38180 ft | 418 kts | 243° |
| 2026-05-07 19:24 | 57.83242 | 15.66388 | 38183 ft | 418 kts | 242° |
| 2026-05-07 19:25 | 57.80451 | 15.56808 | 38182 ft | 418 kts | 242° |
| 2026-05-07 19:25 | 57.77651 | 15.47250 | 38184 ft | 418 kts | 242° |
| 2026-05-07 19:26 | 57.74836 | 15.37710 | 38179 ft | 418 kts | 242° |
| 2026-05-07 19:26 | 57.72019 | 15.28177 | 38192 ft | 418 kts | 242° |
| 2026-05-07 19:27 | 57.69206 | 15.18653 | 38180 ft | 418 kts | 242° |
| 2026-05-07 19:27 | 57.66378 | 15.09158 | 38176 ft | 418 kts | 242° |
| 2026-05-07 19:28 | 57.63547 | 14.99693 | 38166 ft | 418 kts | 242° |
| 2026-05-07 19:28 | 57.60708 | 14.90231 | 38171 ft | 418 kts | 242° |
| 2026-05-07 19:29 | 57.57843 | 14.80715 | 38138 ft | 419 kts | 241° |
| 2026-05-07 19:29 | 57.54982 | 14.71252 | 38132 ft | 420 kts | 241° |
| 2026-05-07 19:30 | 57.52109 | 14.61781 | 38145 ft | 420 kts | 241° |
| 2026-05-07 19:30 | 57.49224 | 14.52316 | 38155 ft | 421 kts | 242° |
| 2026-05-07 19:31 | 57.46331 | 14.42879 | 38147 ft | 420 kts | 242° |
| 2026-05-07 19:31 | 57.43438 | 14.33449 | 38138 ft | 420 kts | 242° |
| 2026-05-07 19:32 | 57.40542 | 14.24038 | 38134 ft | 420 kts | 242° |
| 2026-05-07 19:32 | 57.37634 | 14.14646 | 38094 ft | 420 kts | 241° |
| 2026-05-07 19:33 | 57.34706 | 14.05260 | 38120 ft | 421 kts | 241° |
| 2026-05-07 19:33 | 57.31777 | 13.95862 | 38130 ft | 422 kts | 241° |
| 2026-05-07 19:34 | 57.28831 | 13.86477 | 38140 ft | 422 kts | 240° |
| 2026-05-07 19:34 | 57.25874 | 13.77101 | 38143 ft | 422 kts | 241° |
| 2026-05-07 19:35 | 57.22897 | 13.67665 | 38146 ft | 422 kts | 240° |
| 2026-05-07 19:35 | 57.19932 | 13.58306 | 38150 ft | 422 kts | 240° |
| 2026-05-07 19:36 | 57.16957 | 13.48974 | 38133 ft | 423 kts | 240° |
| 2026-05-07 19:36 | 57.13966 | 13.39625 | 38133 ft | 424 kts | 240° |
| 2026-05-07 19:37 | 57.10962 | 13.30279 | 38142 ft | 424 kts | 240° |
| 2026-05-07 19:37 | 57.07948 | 13.20934 | 38147 ft | 425 kts | 240° |
| 2026-05-07 19:38 | 57.04930 | 13.11592 | 38154 ft | 425 kts | 240° |
| 2026-05-07 19:38 | 57.01901 | 13.02265 | 38166 ft | 425 kts | 240° |
| 2026-05-07 19:39 | 56.98839 | 12.92901 | 38169 ft | 425 kts | 240° |
| 2026-05-07 19:39 | 56.95813 | 12.83674 | 38152 ft | 425 kts | 239° |
| 2026-05-07 19:40 | 56.92758 | 12.74385 | 38146 ft | 426 kts | 239° |
| 2026-05-07 19:40 | 56.89693 | 12.65070 | 38139 ft | 417 kts | 239° |
| 2026-05-07 19:41 | 56.86734 | 12.56138 | 38145 ft | 409 kts | 239° |
| 2026-05-07 19:41 | 56.85257 | 12.51694 | 37950 ft | 407 kts | 239° |
| 2026-05-07 19:41 | 56.83792 | 12.47293 | 37539 ft | 404 kts | 239° |
| 2026-05-07 19:42 | 56.82336 | 12.42927 | 37116 ft | 401 kts | 239° |
| 2026-05-07 19:42 | 56.80891 | 12.38600 | 36692 ft | 399 kts | 239° |
| 2026-05-07 19:42 | 56.79450 | 12.34291 | 36278 ft | 396 kts | 239° |
| 2026-05-07 19:42 | 56.78016 | 12.30019 | 35877 ft | 393 kts | 239° |
| 2026-05-07 19:43 | 56.76589 | 12.25778 | 35483 ft | 392 kts | 239° |
| 2026-05-07 19:43 | 56.75166 | 12.21553 | 35074 ft | 390 kts | 239° |
| 2026-05-07 19:43 | 56.73748 | 12.17347 | 34698 ft | 389 kts | 239° |
| 2026-05-07 19:43 | 56.72335 | 12.13162 | 34337 ft | 387 kts | 239° |
| 2026-05-07 19:44 | 56.70929 | 12.08997 | 33964 ft | 385 kts | 239° |
| 2026-05-07 19:44 | 56.69529 | 12.04857 | 33581 ft | 383 kts | 239° |
| 2026-05-07 19:44 | 56.68136 | 12.00746 | 33219 ft | 380 kts | 239° |
| 2026-05-07 19:44 | 56.66753 | 11.96674 | 32878 ft | 378 kts | 239° |
| 2026-05-07 19:45 | 56.65373 | 11.92614 | 32538 ft | 376 kts | 239° |
| 2026-05-07 19:45 | 56.64003 | 11.88603 | 32220 ft | 373 kts | 239° |
| 2026-05-07 19:45 | 56.62634 | 11.84602 | 31892 ft | 371 kts | 239° |
| 2026-05-07 19:45 | 56.61275 | 11.80640 | 31569 ft | 368 kts | 239° |
| 2026-05-07 19:46 | 56.59927 | 11.76714 | 31243 ft | 366 kts | 239° |
| 2026-05-07 19:46 | 56.58584 | 11.72806 | 30918 ft | 364 kts | 239° |
| 2026-05-07 19:46 | 56.57225 | 11.68944 | 30546 ft | 360 kts | 238° |
| 2026-05-07 19:46 | 56.55867 | 11.65171 | 29881 ft | 356 kts | 237° |
| 2026-05-07 19:47 | 56.54484 | 11.61372 | 28937 ft | 358 kts | 237° |
| 2026-05-07 19:47 | 56.53108 | 11.57603 | 27786 ft | 367 kts | 237° |
| 2026-05-07 19:47 | 56.51699 | 11.53741 | 26944 ft | 367 kts | 237° |
| 2026-05-07 19:47 | 56.50273 | 11.49833 | 26465 ft | 367 kts | 237° |
| 2026-05-07 19:48 | 56.48888 | 11.46032 | 26078 ft | 365 kts | 238° |
| 2026-05-07 19:48 | 56.47478 | 11.42161 | 25685 ft | 362 kts | 238° |
| 2026-05-07 19:48 | 56.46099 | 11.38378 | 25208 ft | 358 kts | 238° |
| 2026-05-07 19:48 | 56.44734 | 11.34638 | 24540 ft | 355 kts | 238° |
| 2026-05-07 19:49 | 56.43380 | 11.30932 | 23899 ft | 352 kts | 238° |
| 2026-05-07 19:49 | 56.42028 | 11.27247 | 23400 ft | 351 kts | 238° |
| 2026-05-07 19:49 | 56.40683 | 11.23590 | 22980 ft | 348 kts | 237° |
| 2026-05-07 19:49 | 56.39346 | 11.19967 | 22567 ft | 345 kts | 237° |
| 2026-05-07 19:50 | 56.38019 | 11.16370 | 22158 ft | 343 kts | 237° |
| 2026-05-07 19:50 | 56.36703 | 11.12798 | 21741 ft | 341 kts | 237° |
| 2026-05-07 19:50 | 56.35395 | 11.09250 | 21352 ft | 338 kts | 237° |
| 2026-05-07 19:50 | 56.34095 | 11.05731 | 20960 ft | 336 kts | 237° |
| 2026-05-07 19:51 | 56.32805 | 11.02239 | 20582 ft | 333 kts | 237° |
| 2026-05-07 19:51 | 56.31525 | 10.98783 | 20204 ft | 331 kts | 237° |
| 2026-05-07 19:51 | 56.30245 | 10.95338 | 19830 ft | 329 kts | 237° |
| 2026-05-07 19:51 | 56.28972 | 10.91926 | 19465 ft | 327 kts | 237° |
| 2026-05-07 19:52 | 56.27709 | 10.88545 | 19091 ft | 325 kts | 237° |
| 2026-05-07 19:52 | 56.26452 | 10.85174 | 18738 ft | 323 kts | 237° |
| 2026-05-07 19:52 | 56.25203 | 10.81826 | 18378 ft | 321 kts | 237° |
| 2026-05-07 19:52 | 56.24361 | 10.79574 | 18093 ft | 320 kts | 237° |
| 2026-05-07 19:53 | 56.23123 | 10.76260 | 17695 ft | 318 kts | 237° |
| 2026-05-07 19:53 | 56.21892 | 10.72969 | 17302 ft | 316 kts | 237° |
| 2026-05-07 19:53 | 56.20667 | 10.69701 | 16912 ft | 314 kts | 237° |
| 2026-05-07 19:53 | 56.19447 | 10.66456 | 16554 ft | 313 kts | 237° |
| 2026-05-07 19:54 | 56.18233 | 10.63233 | 16174 ft | 311 kts | 236° |
| 2026-05-07 19:54 | 56.17028 | 10.60038 | 15808 ft | 309 kts | 236° |
| 2026-05-07 19:54 | 56.15823 | 10.56846 | 15446 ft | 307 kts | 237° |
| 2026-05-07 19:54 | 56.14630 | 10.53686 | 15100 ft | 306 kts | 236° |
| 2026-05-07 19:55 | 56.13442 | 10.50542 | 14750 ft | 304 kts | 236° |
| 2026-05-07 19:55 | 56.12259 | 10.47410 | 14392 ft | 303 kts | 236° |
| 2026-05-07 19:55 | 56.11075 | 10.44284 | 14035 ft | 302 kts | 236° |
| 2026-05-07 19:55 | 56.09898 | 10.41179 | 13655 ft | 301 kts | 236° |
| 2026-05-07 19:56 | 56.08722 | 10.38087 | 13275 ft | 300 kts | 236° |
| 2026-05-07 19:56 | 56.07549 | 10.35014 | 12893 ft | 298 kts | 236° |
| 2026-05-07 19:56 | 56.06380 | 10.31956 | 12516 ft | 297 kts | 235° |
| 2026-05-07 19:56 | 56.05213 | 10.28911 | 12141 ft | 296 kts | 235° |
| 2026-05-07 19:57 | 56.04050 | 10.25877 | 11781 ft | 295 kts | 235° |
| 2026-05-07 19:57 | 56.02895 | 10.22859 | 11457 ft | 293 kts | 234° |
| 2026-05-07 19:57 | 56.01747 | 10.19863 | 11114 ft | 291 kts | 234° |
| 2026-05-07 19:57 | 56.00605 | 10.16879 | 10766 ft | 290 kts | 234° |
| 2026-05-07 19:58 | 55.99471 | 10.13913 | 10419 ft | 289 kts | 234° |
| 2026-05-07 19:58 | 55.98337 | 10.10954 | 10091 ft | 288 kts | 234° |
| 2026-05-07 19:58 | 55.97208 | 10.08014 | 9727 ft | 287 kts | 234° |
| 2026-05-07 19:58 | 55.96080 | 10.05086 | 9367 ft | 285 kts | 234° |
| 2026-05-07 19:59 | 55.94962 | 10.02198 | 8883 ft | 281 kts | 234° |
| 2026-05-07 19:59 | 55.93852 | 9.99337 | 8311 ft | 279 kts | 234° |
| 2026-05-07 19:59 | 55.92751 | 9.96500 | 7764 ft | 278 kts | 234° |
| 2026-05-07 19:59 | 55.91639 | 9.93638 | 7428 ft | 276 kts | 234° |
| 2026-05-07 20:00 | 55.90562 | 9.90863 | 7112 ft | 275 kts | 234° |
| 2026-05-07 20:00 | 55.89460 | 9.88021 | 6763 ft | 274 kts | 235° |
| 2026-05-07 20:00 | 55.88379 | 9.85238 | 6418 ft | 273 kts | 234° |
| 2026-05-07 20:00 | 55.87299 | 9.82455 | 6099 ft | 271 kts | 235° |
| 2026-05-07 20:01 | 55.86230 | 9.79708 | 5783 ft | 269 kts | 235° |
| 2026-05-07 20:01 | 55.85165 | 9.76976 | 5463 ft | 267 kts | 235° |
| 2026-05-07 20:01 | 55.84110 | 9.74273 | 5147 ft | 266 kts | 235° |
| 2026-05-07 20:01 | 55.83058 | 9.71586 | 4830 ft | 264 kts | 235° |
| 2026-05-07 20:02 | 55.82012 | 9.68917 | 4562 ft | 260 kts | 235° |
| 2026-05-07 20:02 | 55.81000 | 9.66334 | 4430 ft | 251 kts | 235° |
| 2026-05-07 20:02 | 55.80021 | 9.63838 | 4297 ft | 242 kts | 235° |
| 2026-05-07 20:02 | 55.79075 | 9.61435 | 4166 ft | 233 kts | 235° |
| 2026-05-07 20:03 | 55.78166 | 9.59128 | 4035 ft | 223 kts | 233° |
| 2026-05-07 20:03 | 55.77294 | 9.56915 | 3905 ft | 214 kts | 234° |
| 2026-05-07 20:03 | 55.76456 | 9.54785 | 3718 ft | 208 kts | 234° |
| 2026-05-07 20:03 | 55.75633 | 9.52685 | 3451 ft | 206 kts | 237° |
| 2026-05-07 20:04 | 55.75091 | 9.50352 | 3148 ft | 206 kts | 260° |
| 2026-05-07 20:04 | 55.74988 | 9.47841 | 3005 ft | 205 kts | 266° |
| 2026-05-07 20:04 | 55.74919 | 9.45377 | 2993 ft | 195 kts | 266° |
| 2026-05-07 20:04 | 55.74851 | 9.42994 | 2972 ft | 192 kts | 266° |
| 2026-05-07 20:05 | 55.74784 | 9.40634 | 2797 ft | 190 kts | 266° |
| 2026-05-07 20:05 | 55.74720 | 9.38385 | 2596 ft | 181 kts | 266° |
| 2026-05-07 20:05 | 55.74657 | 9.36212 | 2346 ft | 171 kts | 266° |
| 2026-05-07 20:05 | 55.74598 | 9.34165 | 2116 ft | 162 kts | 267° |
| 2026-05-07 20:06 | 55.74541 | 9.32232 | 1905 ft | 149 kts | 267° |
| 2026-05-07 20:06 | 55.74490 | 9.30463 | 1709 ft | 140 kts | 267° |
| 2026-05-07 20:06 | 55.74440 | 9.28766 | 1510 ft | 136 kts | 267° |
| 2026-05-07 20:06 | 55.74390 | 9.27100 | 1332 ft | 135 kts | 268° |
| 2026-05-07 20:07 | 55.74341 | 9.25445 | 1135 ft | 134 kts | 268° |
| 2026-05-07 20:07 | 55.74292 | 9.23798 | 941 ft | 134 kts | 267° |
| 2026-05-07 20:07 | 55.74243 | 9.22135 | 750 ft | 133 kts | 268° |
| 2026-05-07 20:07 | 55.74196 | 9.20503 | 569 ft | 133 kts | 268° |
| 2026-05-07 20:08 | 55.74151 | 9.18887 | 399 ft | 133 kts | 267° |
| 2026-05-07 20:08 | 55.74096 | 9.17235 | 249 ft | 131 kts | 267° |
| 2026-05-07 20:08 | 55.74058 | 9.15865 | 231 ft | 88 kts | 266° |
| 2026-05-07 20:08 | 55.74035 | 9.15084 | 233 ft | 44 kts | 267° |
| 2026-05-07 20:09 | 55.74022 | 9.14645 | 228 ft | 26 kts | 266° |
| 2026-05-07 20:09 | 55.74054 | 9.14501 | 226 ft | 12 kts | 346° |
| 2026-05-07 20:09 | 55.74148 | 9.14492 | 225 ft | 15 kts | 356° |
| 2026-05-07 20:10 | 55.74348 | 9.14472 | 225 ft | 16 kts | 356° |
| 2026-05-07 20:10 | 55.74424 | 9.14471 | 225 ft | 10 kts | 19° |
| 2026-05-07 20:10 | 55.74446 | 9.14589 | 226 ft | 11 kts | 86° |
| 2026-05-07 20:10 | 55.74452 | 9.14711 | 227 ft | 6 kts | 73° |
| 2026-05-07 20:11 | 55.74479 | 9.14703 | 227 ft | 5 kts | 324° |
| 2026-05-07 20:11 | 55.74519 | 9.14682 | 227 ft | 7 kts | 0° |
| 2026-05-07 20:11 | 55.74535 | 9.14682 | 227 ft | 0 kts | 360° |